createdAt,value
2019-02-21T05:24:57.667Z,6.50
2019-02-21T05:27:23.817Z,5.65
2019-02-21T05:29:49.963Z,4.95
2019-02-21T05:32:16.235Z,4.90
2019-02-21T05:34:42.386Z,4.53
2019-02-21T05:37:08.532Z,5.00
2019-02-21T05:39:34.706Z,4.60
2019-02-21T05:42:00.923Z,4.67
2019-02-21T05:44:27.065Z,4.70
2019-02-21T05:46:53.233Z,4.35
2019-02-21T05:49:19.380Z,4.22
2019-02-21T05:51:45.636Z,3.85
2019-02-21T05:54:12.789Z,4.72
2019-02-21T05:56:39.143Z,3.70
2019-02-21T05:59:05.294Z,3.85
2019-02-21T06:01:31.509Z,3.62
2019-02-21T06:03:57.659Z,3.12
2019-02-21T06:06:23.827Z,3.55
2019-02-21T06:08:50.133Z,4.17
2019-02-21T06:11:18.109Z,4.05
2019-02-21T06:13:44.800Z,3.98
2019-02-21T06:16:11.026Z,5.53
2019-02-21T06:18:37.167Z,4.58
2019-02-21T06:21:03.384Z,5.12
2019-02-21T06:23:29.544Z,5.10
2019-02-21T06:25:59.109Z,4.25
2019-02-21T06:28:23.576Z,3.65
2019-02-21T06:30:49.731Z,3.65
2019-02-21T06:33:15.913Z,4.22
2019-02-21T06:35:42.061Z,4.10
2019-02-21T06:38:08.208Z,4.30
2019-02-21T06:40:36.442Z,4.58
2019-02-21T06:43:02.255Z,8.38
2019-02-21T06:45:28.415Z,8.60
2019-02-21T06:47:54.592Z,8.80
2019-02-21T06:50:26.786Z,10.00
2019-02-21T06:52:48.652Z,9.50
2019-02-21T06:55:14.864Z,8.65
2019-02-21T06:57:41.001Z,8.75
2019-02-21T07:00:07.147Z,9.33
2019-02-21T07:02:33.381Z,8.20
2019-02-21T07:04:59.541Z,12.20
2019-02-21T07:07:25.703Z,24.47
2019-02-21T07:09:51.902Z,15.78
2019-02-21T07:12:18.069Z,11.15
2019-02-21T07:14:44.237Z,8.85
2019-02-21T07:17:10.415Z,8.73
2019-02-21T07:19:36.569Z,7.97
2019-02-21T07:22:02.772Z,8.63
2019-02-21T07:24:28.981Z,8.63
2019-02-21T07:26:55.150Z,8.18
2019-02-21T07:29:21.299Z,8.03
2019-02-21T07:31:49.315Z,8.58
2019-02-21T07:34:15.401Z,7.75
2019-02-21T07:36:41.564Z,7.85
2019-02-21T07:39:16.828Z,8.23
2019-02-21T07:41:35.680Z,7.40
2019-02-21T07:44:11.606Z,8.25
2019-02-21T07:46:32.282Z,7.87
2019-02-21T07:48:57.607Z,8.85
2019-02-21T07:51:23.768Z,7.53
2019-02-21T07:53:49.950Z,8.20
2019-02-21T07:56:16.108Z,8.95
2019-02-21T07:58:42.265Z,8.68
2019-02-21T08:01:08.530Z,8.78
2019-02-21T08:03:43.834Z,7.70
2019-02-21T08:06:02.563Z,8.15
2019-02-21T08:08:28.733Z,8.40
2019-02-21T08:10:54.946Z,9.28
2019-02-21T08:13:21.100Z,8.43
2019-02-21T08:15:47.281Z,8.13
2019-02-21T08:18:13.441Z,8.68
2019-02-21T08:20:41.072Z,7.85
2019-02-21T08:23:07.516Z,8.40
2019-02-21T08:25:33.684Z,8.10
2019-02-21T08:27:59.838Z,8.73
2019-02-21T08:30:28.923Z,9.33
2019-02-21T08:32:53.885Z,8.85
2019-02-21T08:35:20.029Z,9.93
2019-02-21T08:37:46.214Z,8.35
2019-02-21T08:40:12.365Z,7.92
2019-02-21T08:42:38.529Z,8.55
2019-02-21T08:45:04.721Z,7.55
2019-02-21T08:47:30.860Z,7.60
2019-02-21T08:49:59.563Z,8.55
2019-02-21T08:52:24.965Z,8.33
2019-02-21T08:54:59.798Z,8.03
2019-02-21T08:57:21.404Z,8.23
2019-02-21T08:59:46.889Z,7.80
2019-02-21T09:02:13.126Z,7.15
2019-02-21T09:04:39.287Z,7.33
2019-02-21T09:07:05.469Z,8.20
2019-02-21T09:09:33.451Z,8.35
2019-02-21T09:11:59.594Z,7.58
2019-02-21T09:14:25.762Z,8.40
2019-02-21T09:16:51.900Z,7.70
2019-02-21T09:19:18.048Z,7.85
2019-02-21T09:21:44.322Z,6.92
2019-02-21T09:24:10.494Z,8.18
2019-02-21T09:26:36.645Z,7.33
2019-02-21T09:29:02.838Z,7.37
2019-02-21T09:31:29.054Z,7.72
2019-02-21T09:33:55.211Z,7.55
2019-02-21T09:36:21.422Z,7.92
2019-02-21T09:38:47.639Z,7.10
2019-02-21T09:41:13.823Z,7.17
2019-02-21T09:43:39.994Z,7.05
2019-02-21T09:46:06.152Z,6.85
2019-02-21T09:48:32.310Z,8.08
2019-02-21T09:50:58.565Z,6.92
2019-02-21T09:53:24.724Z,7.80
2019-02-21T09:55:50.888Z,7.33
2019-02-21T09:58:17.056Z,7.70
2019-02-21T10:00:43.251Z,5.95
2019-02-21T10:03:09.404Z,7.25
2019-02-21T10:05:35.584Z,6.17
2019-02-21T10:08:01.748Z,6.87
2019-02-21T10:10:27.963Z,6.97
2019-02-21T10:12:54.146Z,6.58
2019-02-21T10:15:20.303Z,6.72
2019-02-21T10:17:46.470Z,7.10
2019-02-21T10:20:12.658Z,6.28
2019-02-21T10:22:38.806Z,6.75
2019-02-21T10:25:04.950Z,6.85
2019-02-21T10:27:31.156Z,6.75
2019-02-21T10:29:57.313Z,6.80
2019-02-21T10:32:23.467Z,6.50
2019-02-21T10:34:49.655Z,6.08
2019-02-21T10:37:15.817Z,6.33
2019-02-21T10:39:41.973Z,6.40
2019-02-21T10:42:08.158Z,6.67
2019-02-21T10:44:34.307Z,6.92
2019-02-21T10:47:00.456Z,6.75
2019-02-21T10:49:26.639Z,7.65
2019-02-21T10:51:52.844Z,7.53
2019-02-21T10:54:19.005Z,7.05
2019-02-21T10:56:45.176Z,7.25
2019-02-21T10:59:11.342Z,6.83
2019-02-21T11:01:37.582Z,6.90
2019-02-21T11:04:03.734Z,7.35
2019-02-21T11:06:29.879Z,6.58
2019-02-21T11:08:56.067Z,7.05
2019-02-21T11:11:22.261Z,6.60
2019-02-21T11:13:49.508Z,7.30
2019-02-21T11:16:15.689Z,6.53
2019-02-21T11:18:41.851Z,6.92
2019-02-21T11:21:08.104Z,7.50
2019-02-21T11:23:34.275Z,7.08
2019-02-21T11:26:00.414Z,6.42
2019-02-21T11:28:26.566Z,6.53
2019-02-21T11:30:52.837Z,7.22
2019-02-21T11:33:18.996Z,6.92
2019-02-21T11:35:45.171Z,6.15
2019-02-21T11:38:11.332Z,6.90
2019-02-21T11:40:37.528Z,6.22
2019-02-21T11:43:03.716Z,6.72
2019-02-21T11:45:29.926Z,6.45
2019-02-21T11:47:56.074Z,6.28
2019-02-21T11:50:22.261Z,6.92
2019-02-21T11:52:48.414Z,6.17
2019-02-21T11:55:14.570Z,5.97
2019-02-21T11:57:40.755Z,6.08
2019-02-21T12:00:06.948Z,6.42
2019-02-21T12:02:38.760Z,5.87
2019-02-21T12:05:01.007Z,5.67
2019-02-21T12:07:27.156Z,6.33
2019-02-21T12:09:53.307Z,5.67
2019-02-21T12:12:19.480Z,5.33
2019-02-21T12:14:45.634Z,5.55
2019-02-21T12:17:11.794Z,5.17
2019-02-21T12:19:38.006Z,5.08
2019-02-21T12:22:04.167Z,4.67
2019-02-21T12:24:30.319Z,4.90
2019-02-21T12:26:56.494Z,5.03
2019-02-21T12:29:22.643Z,5.05
2019-02-21T12:31:48.853Z,4.72
2019-02-21T12:34:15.019Z,4.55
2019-02-21T12:36:41.210Z,4.10
2019-02-21T12:39:07.328Z,4.10
2019-02-21T12:41:33.593Z,4.60
2019-02-21T12:43:59.744Z,4.78
2019-02-21T12:46:25.897Z,5.83
2019-02-21T12:48:52.198Z,6.00
2019-02-21T12:51:18.379Z,5.00
2019-02-21T12:53:44.520Z,6.30
2019-02-21T12:56:10.710Z,5.80
2019-02-21T12:58:36.868Z,5.75
2019-02-21T13:01:03.084Z,5.50
2019-02-21T13:03:29.262Z,5.95
2019-02-21T13:05:55.423Z,5.83
2019-02-21T13:08:21.590Z,5.90
2019-02-21T13:10:47.976Z,4.83
2019-02-21T13:13:14.087Z,5.35
2019-02-21T13:15:40.229Z,5.70
2019-02-21T13:18:15.353Z,5.30
2019-02-21T13:20:34.360Z,5.65
2019-02-21T13:23:00.509Z,5.87
2019-02-21T13:25:26.690Z,5.42
2019-02-21T13:27:52.846Z,5.95
2019-02-21T13:30:19.079Z,5.37
2019-02-21T13:32:45.239Z,5.30
2019-02-21T13:35:11.383Z,5.70
2019-02-21T13:37:37.528Z,5.00
2019-02-21T13:40:03.821Z,6.20
2019-02-21T13:42:29.975Z,5.30
2019-02-21T13:44:56.134Z,5.28
2019-02-21T13:47:22.312Z,5.00
2019-02-21T13:49:48.498Z,5.70
2019-02-21T13:52:14.655Z,6.05
2019-02-21T13:54:40.827Z,5.33
2019-02-21T13:57:06.972Z,8.40
2019-02-21T13:59:35.033Z,6.10
2019-02-21T14:02:01.018Z,6.08
2019-02-21T14:04:27.176Z,6.30
2019-02-21T14:06:53.333Z,6.83
2019-02-21T14:09:19.507Z,6.30
2019-02-21T14:11:45.669Z,6.47
2019-02-21T14:14:11.821Z,6.30
2019-02-21T14:16:46.221Z,6.25
2019-02-21T14:19:05.862Z,6.25
2019-02-21T14:21:32.040Z,6.00
2019-02-21T14:23:58.231Z,7.17
2019-02-21T14:26:24.363Z,6.92
2019-02-21T14:28:50.520Z,7.03
2019-02-21T14:31:16.776Z,7.50
2019-02-21T14:33:42.938Z,6.65
2019-02-21T14:36:15.514Z,7.22
2019-02-21T14:38:37.835Z,6.75
2019-02-21T14:41:04.233Z,6.83
2019-02-21T14:43:30.375Z,7.55
2019-02-21T14:45:56.550Z,7.10
2019-02-21T14:48:22.710Z,7.12
2019-02-21T14:50:48.938Z,7.83
2019-02-21T14:53:15.120Z,7.00
2019-02-21T14:55:41.278Z,7.85
2019-02-21T14:58:07.438Z,8.28
2019-02-21T15:00:33.679Z,7.47
2019-02-21T15:02:59.846Z,8.50
2019-02-21T15:05:25.986Z,8.30
2019-02-21T15:07:52.164Z,7.15
2019-02-21T15:10:18.359Z,7.65
2019-02-21T15:12:44.522Z,8.03
2019-02-21T15:15:10.689Z,7.72
2019-02-21T15:17:36.844Z,7.75
2019-02-21T15:20:03.111Z,7.62
2019-02-21T15:22:29.256Z,7.72
2019-02-21T15:24:55.411Z,7.67
2019-02-21T15:27:23.452Z,8.33
2019-02-21T15:29:49.569Z,8.68
2019-02-21T15:32:15.731Z,7.78
2019-02-21T15:34:41.911Z,7.60
2019-02-21T15:37:08.072Z,7.78
2019-02-21T15:39:34.240Z,7.60
2019-02-21T15:42:00.425Z,7.87
2019-02-21T15:44:26.574Z,7.67
2019-02-21T15:46:52.717Z,8.48
2019-02-21T15:49:18.886Z,7.90
2019-02-21T15:51:45.043Z,8.55
2019-02-21T15:54:12.517Z,7.97
2019-02-21T15:56:38.862Z,9.40
2019-02-21T15:59:05.024Z,8.08
2019-02-21T16:01:31.185Z,8.75
2019-02-21T16:03:57.347Z,9.53
2019-02-21T16:06:23.491Z,8.63
2019-02-21T16:08:49.660Z,8.78
2019-02-21T16:11:15.839Z,8.68
2019-02-21T16:13:42.252Z,7.92
2019-02-21T16:16:08.437Z,8.75
2019-02-21T16:18:34.596Z,8.63
2019-02-21T16:21:00.758Z,7.75
2019-02-21T16:23:26.935Z,8.55
2019-02-21T16:25:53.088Z,7.47
2019-02-21T16:28:19.242Z,8.23
2019-02-21T16:30:45.498Z,7.85
2019-02-21T16:33:11.643Z,8.30
2019-02-21T16:35:37.801Z,8.60
2019-02-21T16:38:03.975Z,8.30
2019-02-21T16:40:30.178Z,8.85
2019-02-21T16:42:56.335Z,7.70
2019-02-21T16:45:22.516Z,8.38
2019-02-21T16:47:48.672Z,7.97
2019-02-21T16:50:14.898Z,7.67
2019-02-21T16:52:41.071Z,8.28
2019-02-21T16:55:08.804Z,7.87
2019-02-21T16:57:35.059Z,7.25
2019-02-21T17:00:01.286Z,8.13
2019-02-21T17:02:27.430Z,8.15
2019-02-21T17:04:55.709Z,7.70
2019-02-21T17:07:21.516Z,8.10
2019-02-21T17:09:47.695Z,8.45
2019-02-21T17:12:13.838Z,7.90
2019-02-21T17:14:40.001Z,6.80
2019-02-21T17:17:06.144Z,6.97
2019-02-21T17:19:32.339Z,7.08
2019-02-21T17:21:58.495Z,8.20
2019-02-21T17:24:24.650Z,6.97
2019-02-21T17:26:50.834Z,6.70
2019-02-21T17:29:17.020Z,6.97
2019-02-21T17:31:43.180Z,6.92
2019-02-21T17:34:09.352Z,7.87
2019-02-21T17:36:35.500Z,7.35
2019-02-21T17:39:01.644Z,7.95
2019-02-21T17:41:27.829Z,6.65
2019-02-21T17:43:53.997Z,8.10
2019-02-21T17:46:20.127Z,6.78
2019-02-21T17:48:46.308Z,6.85
2019-02-21T17:51:12.467Z,6.47
2019-02-21T17:53:39.933Z,6.75
2019-02-21T17:56:06.080Z,7.30
2019-02-21T17:58:32.225Z,6.55
2019-02-21T18:00:58.592Z,6.62
2019-02-21T18:03:24.767Z,6.40
2019-02-21T18:05:50.923Z,6.75
2019-02-21T18:08:17.062Z,6.80
2019-02-21T18:10:43.265Z,6.70
2019-02-21T18:13:09.410Z,6.33
2019-02-21T18:15:35.556Z,5.42
2019-02-21T18:18:01.889Z,5.45
2019-02-21T18:20:29.782Z,5.60
2019-02-21T18:22:55.931Z,6.20
2019-02-21T18:25:22.180Z,5.35
2019-02-21T18:27:48.323Z,5.80
2019-02-21T18:30:14.648Z,5.08
2019-02-21T18:32:40.813Z,5.35
2019-02-21T18:35:06.958Z,4.70
2019-02-21T18:37:33.103Z,5.08
2019-02-21T18:39:59.914Z,4.95
2019-02-21T18:42:26.050Z,5.58
2019-02-21T18:44:52.190Z,5.50
2019-02-21T18:47:18.411Z,5.03
2019-02-21T18:49:44.528Z,5.12
2019-02-21T18:52:10.675Z,5.17
2019-02-21T18:54:39.504Z,5.03
2019-02-21T18:57:05.656Z,5.33
2019-02-21T18:59:32.109Z,4.72
2019-02-21T19:01:58.303Z,4.65
2019-02-21T19:04:24.501Z,5.05
2019-02-21T19:06:50.642Z,4.67
2019-02-21T19:09:16.864Z,4.65
2019-02-21T19:11:43.019Z,5.08
2019-02-21T19:14:09.164Z,5.30
2019-02-21T19:16:35.343Z,5.40
2019-02-21T19:19:01.540Z,6.80
2019-02-21T19:21:27.685Z,6.75
2019-02-21T19:23:53.855Z,8.93
2019-02-21T19:26:20.001Z,5.55
2019-02-21T19:28:46.146Z,6.92
2019-02-21T19:31:12.294Z,7.28
2019-02-21T19:33:38.479Z,6.05
2019-02-21T19:36:04.623Z,8.05
2019-02-21T19:38:30.772Z,6.83
2019-02-21T19:40:56.944Z,7.53
2019-02-21T19:43:23.099Z,7.50
2019-02-21T19:45:49.254Z,7.92
2019-02-21T19:48:15.424Z,8.73
2019-02-21T19:50:41.614Z,7.17
2019-02-21T19:53:07.773Z,7.90
2019-02-21T19:55:33.980Z,6.40
2019-02-21T19:58:00.124Z,7.50
2019-02-21T20:00:26.307Z,6.78
2019-02-21T20:02:52.516Z,6.08
2019-02-21T20:05:18.666Z,6.65
2019-02-21T20:07:44.823Z,6.17
2019-02-21T20:10:11.050Z,6.70
2019-02-21T20:12:37.197Z,6.80
2019-02-21T20:15:03.348Z,6.85
2019-02-21T20:17:29.550Z,6.12
2019-02-21T20:19:55.735Z,6.65
2019-02-21T20:22:21.885Z,6.47
2019-02-21T20:24:48.224Z,6.80
2019-02-21T20:27:14.379Z,7.10
2019-02-21T20:29:40.548Z,6.83
2019-02-21T20:32:06.752Z,7.37
2019-02-21T20:34:32.903Z,6.85
2019-02-21T20:36:59.044Z,7.90
2019-02-21T20:39:25.291Z,6.90
2019-02-21T20:41:51.447Z,7.40
2019-02-21T20:44:17.625Z,7.12
2019-02-21T20:46:43.767Z,7.25
2019-02-21T20:49:09.980Z,7.37
2019-02-21T20:51:36.125Z,7.75
2019-02-21T20:54:02.287Z,6.85
2019-02-21T20:56:28.437Z,8.13
2019-02-21T20:58:54.752Z,7.78
2019-02-21T21:01:20.876Z,7.30
2019-02-21T21:03:47.030Z,7.67
2019-02-21T21:06:13.876Z,8.03
2019-02-21T21:08:43.179Z,7.20
2019-02-21T21:11:08.034Z,7.55
2019-02-21T21:13:34.179Z,6.90
2019-02-21T21:16:00.356Z,7.30
2019-02-21T21:18:26.499Z,8.35
2019-02-21T21:20:52.645Z,7.60
2019-02-21T21:23:19.230Z,10.15
2019-02-21T21:25:45.371Z,9.33
2019-02-21T21:28:11.557Z,8.40
2019-02-21T21:30:37.740Z,7.58
2019-02-21T21:33:03.973Z,12.07
2019-02-21T21:35:30.137Z,10.48
2019-02-21T21:37:56.318Z,9.30
2019-02-21T21:40:22.532Z,8.80
2019-02-21T21:42:48.732Z,10.55
2019-02-21T21:45:14.905Z,18.70
2019-02-21T21:47:41.051Z,8.18
2019-02-21T21:50:07.242Z,7.80
2019-02-21T21:52:33.412Z,8.75
2019-02-21T21:54:59.562Z,8.40
2019-02-21T21:57:25.702Z,8.10
2019-02-21T21:59:51.993Z,22.55
2019-02-21T22:02:18.165Z,11.85
2019-02-21T22:04:44.311Z,8.68
2019-02-21T22:07:10.496Z,11.70
2019-02-21T22:09:36.728Z,11.12
2019-02-21T22:12:02.874Z,9.25
2019-02-21T22:14:29.059Z,11.10
2019-02-21T22:16:55.204Z,9.80
2019-02-21T22:19:21.387Z,8.38
2019-02-21T22:21:47.612Z,9.23
2019-02-21T22:24:13.760Z,8.45
2019-02-21T22:26:39.901Z,7.87
2019-02-21T22:29:06.123Z,8.50
2019-02-21T22:31:32.272Z,8.58
